createdAt,value
2023-03-18T00:04:39.033Z,8.10
2023-03-18T00:09:43.287Z,12.60
2023-03-18T00:14:46.436Z,10.47
2023-03-18T00:19:50.243Z,9.67
2023-03-18T00:24:54.819Z,12.73
2023-03-18T00:29:58.661Z,8.20
2023-03-18T00:35:02.289Z,9.50
2023-03-18T00:40:10.592Z,9.60
2023-03-18T00:45:13.543Z,9.10
2023-03-18T00:50:18.020Z,9.37
2023-03-18T00:55:22.862Z,9.03
2023-03-18T01:00:27.114Z,9.90
2023-03-18T01:05:30.447Z,9.40
2023-03-18T01:10:34.811Z,9.80
2023-03-18T01:15:38.726Z,9.03
2023-03-18T01:20:41.630Z,11.23
2023-03-18T01:25:45.988Z,9.20
2023-03-18T01:30:55.301Z,16.13
2023-03-18T01:36:00.312Z,11.63
2023-03-18T01:41:07.471Z,10.10
2023-03-18T01:46:41.314Z,13.77
2023-03-18T01:51:49.257Z,8.30
2023-03-18T01:56:55.809Z,12.90
2023-03-18T02:02:04.583Z,10.50
2023-03-18T02:07:16.617Z,9.87
2023-03-18T02:12:24.922Z,9.77
2023-03-18T02:17:35.417Z,11.37
2023-03-18T02:22:43.676Z,12.57
2023-03-18T02:27:52.197Z,10.17
2023-03-18T02:32:58.958Z,11.73
2023-03-18T02:38:01.977Z,10.37
2023-03-18T02:43:20.173Z,10.53
2023-03-18T02:48:33.739Z,8.87
2023-03-18T02:53:37.203Z,17.13
2023-03-18T02:58:41.943Z,9.57
2023-03-18T03:03:45.767Z,10.63
2023-03-18T03:08:49.766Z,8.50
2023-03-18T03:13:54.586Z,9.57
2023-03-18T03:18:57.544Z,7.80
2023-03-18T03:24:00.746Z,11.77
2023-03-18T03:29:07.029Z,13.40
2023-03-18T03:34:10.762Z,10.10
2023-03-18T03:39:13.650Z,8.80
2023-03-18T03:44:17.916Z,10.03
2023-03-18T03:49:25.218Z,7.20
2023-03-18T03:54:28.369Z,11.77
2023-03-18T03:59:32.742Z,9.23
2023-03-18T04:04:49.310Z,9.03
2023-03-18T04:10:03.063Z,8.83
2023-03-18T04:15:10.991Z,8.77
2023-03-18T04:20:14.830Z,10.13
2023-03-18T04:25:18.084Z,9.20
2023-03-18T04:30:25.590Z,9.20
2023-03-18T04:35:38.664Z,12.20
2023-03-18T04:40:42.825Z,10.13
2023-03-18T04:45:47.338Z,12.90
2023-03-18T04:50:51.580Z,10.00
2023-03-18T04:56:00.346Z,11.10
2023-03-18T05:01:13.192Z,12.77
2023-03-18T05:06:22.974Z,10.70
2023-03-18T05:11:40.447Z,7.83
2023-03-18T05:16:51.940Z,13.03
2023-03-18T05:21:55.766Z,11.40
2023-03-18T05:26:59.153Z,10.40
2023-03-18T05:32:11.507Z,9.33
2023-03-18T05:37:16.008Z,11.67
2023-03-18T05:42:25.232Z,9.70
2023-03-18T05:47:29.780Z,8.83
2023-03-18T05:52:39.084Z,10.30
2023-03-18T05:57:48.730Z,15.40
2023-03-18T06:02:53.982Z,10.80
2023-03-18T06:07:57.949Z,7.87
2023-03-18T06:13:01.222Z,11.93
2023-03-18T06:18:06.087Z,10.73
2023-03-18T06:23:09.136Z,12.17
2023-03-18T06:28:13.005Z,13.10
2023-03-18T06:33:18.320Z,12.47
2023-03-18T06:38:22.427Z,12.10
2023-03-18T06:43:27.081Z,10.07
2023-03-18T06:48:32.966Z,14.03
2023-03-18T06:53:38.689Z,9.60
2023-03-18T06:58:41.897Z,13.20
2023-03-18T07:03:46.908Z,9.30
2023-03-18T07:08:50.950Z,8.00
2023-03-18T07:13:54.156Z,11.97
2023-03-18T07:19:05.676Z,10.33
2023-03-18T07:24:09.004Z,10.30
2023-03-18T07:29:11.939Z,12.03
2023-03-18T07:34:17.811Z,8.83
2023-03-18T07:39:21.037Z,9.90
2023-03-18T07:44:25.195Z,11.47
2023-03-18T07:49:30.101Z,12.43
2023-03-18T07:54:33.100Z,10.57
2023-03-18T07:59:36.579Z,12.37
2023-03-18T08:04:40.928Z,8.40
2023-03-18T08:09:43.843Z,9.23
2023-03-18T08:14:48.254Z,8.90
2023-03-18T08:19:53.333Z,11.50
2023-03-18T08:24:58.119Z,9.50
2023-03-18T08:30:03.488Z,9.13
2023-03-18T08:35:09.841Z,9.10
2023-03-18T08:40:13.981Z,9.07
2023-03-18T08:45:17.197Z,8.90
2023-03-18T08:50:22.899Z,10.17
2023-03-18T08:55:30.922Z,10.10
2023-03-18T09:00:34.950Z,9.50
2023-03-18T09:05:40.325Z,10.63
2023-03-18T09:10:45.674Z,8.77
2023-03-18T09:15:48.657Z,10.80
2023-03-18T09:20:53.654Z,10.83
2023-03-18T09:25:57.223Z,16.60
2023-03-18T09:31:00.288Z,10.17
2023-03-18T09:36:05.297Z,9.10
2023-03-18T09:41:22.196Z,10.60
2023-03-18T09:46:34.091Z,9.33
2023-03-18T09:51:54.315Z,10.20
2023-03-18T09:56:57.422Z,6.67
2023-03-18T10:02:01.790Z,9.80
2023-03-18T10:07:13.143Z,9.50
2023-03-18T10:12:22.042Z,11.20
2023-03-18T10:17:30.273Z,9.70
2023-03-18T10:22:55.703Z,12.17
2023-03-18T10:28:14.071Z,10.57
2023-03-18T10:33:27.644Z,9.90
2023-03-18T10:38:37.109Z,9.87
2023-03-18T10:43:40.986Z,11.30
2023-03-18T10:48:47.117Z,8.03
2023-03-18T10:53:58.764Z,10.40
2023-03-18T10:59:02.069Z,11.13
2023-03-18T11:04:07.893Z,12.87
2023-03-18T11:09:14.321Z,11.30
2023-03-18T11:14:20.997Z,10.73
2023-03-18T11:19:29.798Z,14.87
2023-03-18T11:24:39.588Z,12.43
2023-03-18T11:29:46.807Z,10.90
2023-03-18T11:34:57.265Z,10.53
2023-03-18T11:40:18.506Z,10.97
2023-03-18T11:45:36.970Z,8.77
2023-03-18T11:50:47.310Z,12.63
2023-03-18T11:55:59.489Z,7.90
2023-03-18T12:01:12.179Z,12.00
2023-03-18T12:06:21.236Z,10.87
2023-03-18T12:11:42.265Z,13.13
2023-03-18T12:16:55.940Z,9.70
2023-03-18T12:22:11.842Z,12.73
2023-03-18T12:27:24.937Z,15.30
2023-03-18T12:32:34.952Z,13.83
2023-03-18T12:37:53.672Z,12.47
2023-03-18T12:43:11.227Z,13.17
2023-03-18T12:48:18.558Z,14.57
2023-03-18T12:53:29.814Z,13.47
2023-03-18T12:58:40.776Z,14.40
2023-03-18T13:03:46.202Z,15.00
2023-03-18T13:09:02.735Z,15.80
2023-03-18T13:14:15.253Z,15.03
2023-03-18T13:19:18.896Z,13.93
2023-03-18T13:24:53.955Z,17.33
2023-03-18T13:30:06.192Z,14.80
2023-03-18T13:35:37.537Z,13.30
2023-03-18T13:40:57.248Z,13.97
2023-03-18T13:46:02.404Z,17.53
2023-03-18T13:51:21.822Z,16.60
2023-03-18T13:56:33.195Z,13.10
2023-03-18T14:01:50.720Z,16.13
2023-03-18T14:06:57.191Z,12.23
2023-03-18T14:12:16.849Z,14.43
2023-03-18T14:17:26.877Z,16.37
2023-03-18T14:22:36.392Z,14.20
2023-03-18T14:27:47.250Z,16.97
2023-03-18T14:33:00.530Z,12.60
2023-03-18T14:38:10.725Z,17.13
2023-03-18T14:43:21.281Z,15.63
2023-03-18T14:48:30.537Z,14.23
2023-03-18T14:53:35.544Z,14.17
2023-03-18T14:58:38.444Z,15.07
2023-03-18T15:03:45.935Z,18.80
2023-03-18T15:08:51.398Z,18.10
2023-03-18T15:14:00.069Z,15.50
2023-03-18T15:19:05.238Z,15.93
2023-03-18T15:24:09.693Z,17.47
2023-03-18T15:29:33.491Z,14.77
2023-03-18T15:34:47.235Z,17.90
2023-03-18T15:39:55.673Z,16.60
2023-03-18T15:45:01.650Z,17.80
2023-03-18T15:50:27.214Z,16.40
2023-03-18T15:55:34.565Z,17.97
2023-03-18T16:00:37.805Z,15.23
2023-03-18T16:05:42.111Z,17.43
2023-03-18T16:10:46.771Z,16.03
2023-03-18T16:15:49.838Z,16.33
2023-03-18T16:20:54.273Z,17.33
2023-03-18T16:25:59.071Z,17.77
2023-03-18T16:31:01.998Z,18.83
2023-03-18T16:36:07.648Z,20.77
2023-03-18T16:41:10.577Z,16.80
2023-03-18T16:46:15.426Z,18.10
2023-03-18T16:51:19.774Z,19.80
2023-03-18T16:56:24.076Z,22.53
2023-03-18T17:01:28.078Z,18.77
2023-03-18T17:06:32.429Z,18.70
2023-03-18T17:11:35.386Z,20.60
2023-03-18T17:16:38.598Z,26.00
2023-03-18T17:21:42.886Z,25.97
2023-03-18T17:26:47.361Z,22.17
2023-03-18T17:31:50.404Z,34.17
2023-03-18T17:36:56.482Z,39.37
2023-03-18T17:41:59.375Z,33.30
2023-03-18T17:47:03.087Z,25.40
2023-03-18T17:52:07.551Z,34.17
2023-03-18T17:57:15.539Z,47.03
2023-03-18T18:02:20.310Z,36.07
2023-03-18T18:07:25.452Z,20.97
2023-03-18T18:12:28.701Z,27.70
2023-03-18T18:17:31.589Z,27.03
2023-03-18T18:22:36.000Z,41.93
2023-03-18T18:27:38.866Z,37.13
2023-03-18T18:32:41.841Z,34.43
2023-03-18T18:37:47.561Z,26.07
2023-03-18T18:42:50.533Z,45.43
2023-03-18T18:47:53.446Z,37.23
2023-03-18T18:52:57.765Z,35.73
2023-03-18T18:58:01.279Z,38.07
2023-03-18T19:03:04.239Z,59.47
2023-03-18T19:08:20.409Z,41.33
2023-03-18T19:13:24.581Z,35.77
2023-03-18T19:18:33.681Z,37.97
2023-03-18T19:23:37.982Z,40.63
2023-03-18T19:29:01.379Z,31.30
2023-03-18T19:34:16.194Z,96.60
2023-03-18T19:39:21.976Z,52.07
2023-03-18T19:44:26.456Z,36.30
2023-03-18T19:49:33.276Z,64.40
2023-03-18T19:54:38.053Z,30.97
2023-03-18T19:59:41.205Z,36.77
2023-03-18T20:04:44.173Z,43.60
2023-03-18T20:09:48.920Z,32.23
2023-03-18T20:14:52.500Z,46.83
2023-03-18T20:19:55.759Z,35.47
2023-03-18T20:25:00.765Z,40.53
2023-03-18T20:30:10.508Z,41.03
2023-03-18T20:35:13.838Z,34.73
2023-03-18T20:40:22.994Z,57.80
2023-03-18T20:45:26.165Z,58.37
2023-03-18T20:50:29.916Z,31.50
2023-03-18T20:55:36.028Z,32.17
2023-03-18T21:00:38.994Z,44.83
2023-03-18T21:05:41.886Z,25.57
2023-03-18T21:10:47.127Z,26.37
2023-03-18T21:15:50.187Z,35.73
2023-03-18T21:20:53.860Z,32.60
2023-03-18T21:25:58.219Z,47.53
2023-03-18T21:31:03.067Z,70.20
2023-03-18T21:36:07.443Z,32.53
2023-03-18T21:41:19.816Z,60.63
2023-03-18T21:46:24.615Z,41.33
2023-03-18T21:51:39.047Z,37.10
2023-03-18T21:56:44.336Z,36.10
2023-03-18T22:01:47.326Z,35.17
2023-03-18T22:06:50.268Z,30.40
2023-03-18T22:11:54.531Z,40.50
2023-03-18T22:16:57.457Z,37.40
2023-03-18T22:22:00.411Z,35.77
2023-03-18T22:27:04.919Z,40.37
2023-03-18T22:32:10.232Z,35.83
2023-03-18T22:37:19.963Z,27.90
2023-03-18T22:42:26.777Z,23.67
2023-03-18T22:47:29.684Z,26.83
2023-03-18T22:52:32.815Z,29.73
2023-03-18T22:57:37.092Z,30.87
2023-03-18T23:02:40.037Z,39.50
2023-03-18T23:07:43.044Z,49.50
2023-03-18T23:12:48.077Z,40.50
2023-03-18T23:17:50.988Z,65.70
2023-03-18T23:22:54.779Z,45.53
2023-03-18T23:27:59.013Z,41.90
2023-03-18T23:33:02.087Z,45.40
2023-03-18T23:38:05.780Z,40.93
2023-03-18T23:43:10.119Z,40.37
2023-03-18T23:48:13.023Z,43.10
2023-03-18T23:53:16.186Z,43.17
2023-03-18T23:58:20.585Z,49.80
